Time;durP1;ratioP1;P1;durP2;ratioP2;P2;SDS_P1;SDS_P2;PMS_P1;PMS_P2;Temp;Humidity;BMP_temperature;BMP_pressure;BME280_temperature;BME280_humidity;BME280_pressure;Samples;Min_cycle;Max_cycle;Signal;HPM_P1;HPM_P2
2023/04/10 00:02:25;;;;;;;39.50;25.30;;;;;;;6.84;84.13;100687.05;217753;1259;140958;-68
2023/04/10 00:07:30;;;;;;;38.30;23.90;;;;;;;6.78;84.13;100687.75;217188;1256;141004;-67
2023/04/10 00:12:36;;;;;;;39.30;26.60;;;;;;;6.77;84.35;100679.18;217567;1258;140821;-67
2023/04/10 00:17:41;;;;;;;40.60;30.70;;;;;;;6.75;84.71;100679.50;217586;1260;140012;-68
2023/04/10 00:22:46;;;;;;;45.00;30.00;;;;;;;6.71;84.62;100681.83;217760;1259;141496;-67
2023/04/10 00:27:53;;;;;;;48.90;30.80;;;;;;;6.71;85.06;100684.27;218075;1257;141033;-67
2023/04/10 00:32:58;;;;;;;56.00;34.20;;;;;;;6.77;85.51;100683.26;218868;1257;139867;-66
2023/04/10 00:38:03;;;;;;;55.60;33.70;;;;;;;6.83;85.78;100674.90;217384;1260;141197;-66
2023/04/10 00:43:06;;;;;;;54.60;37.00;;;;;;;6.91;85.98;100667.73;218682;1258;141097;-67
2023/04/10 00:48:11;;;;;;;53.40;33.60;;;;;;;6.99;86.21;100662.73;218248;1257;140013;-68
2023/04/10 00:53:17;;;;;;;61.20;36.70;;;;;;;7.07;86.61;100669.84;217701;1257;140405;-67
2023/04/10 00:58:22;;;;;;;57.80;35.90;;;;;;;7.13;86.25;100672.43;220292;1256;140115;-66
2023/04/10 01:03:27;;;;;;;68.00;36.60;;;;;;;7.20;86.72;100679.40;220355;1256;140081;-66
2023/04/10 01:08:47;;;;;;;49.40;33.20;;;;;;;7.27;86.64;100679.02;220415;1256;140091;-66
2023/04/10 01:14:01;;;;;;;55.80;35.20;;;;;;;7.33;86.72;100680.21;220358;1256;139750;-68
2023/04/10 01:19:32;;;;;;;54.60;36.60;;;;;;;7.39;86.63;100677.27;220277;1256;141529;-67
2023/04/10 01:25:08;;;;;;;59.90;33.30;;;;;;;7.44;86.79;100673.52;217609;1256;139921;-67
2023/04/10 01:30:17;;;;;;;53.20;33.50;;;;;;;7.44;86.60;100676.50;217665;1256;140922;-67
2023/04/10 01:35:21;;;;;;;48.40;32.70;;;;;;;7.46;86.72;100678.96;218260;1256;141291;-67
2023/04/10 01:40:28;;;;;;;53.10;35.40;;;;;;;7.48;86.70;100671.73;217874;1259;140605;-69
2023/04/10 01:45:32;;;;;;;56.90;35.30;;;;;;;7.50;86.92;100667.50;218095;1256;141008;-68
2023/04/10 01:50:37;;;;;;;56.30;33.10;;;;;;;7.51;87.00;100671.10;218153;1256;141074;-68
2023/04/10 01:55:42;;;;;;;61.90;33.40;;;;;;;7.50;86.87;100676.48;217529;1256;141281;-68
2023/04/10 02:00:46;;;;;;;55.70;31.70;;;;;;;7.48;86.86;100683.85;218004;1259;139901;-68
2023/04/10 02:05:52;;;;;;;47.20;32.30;;;;;;;7.47;87.05;100673.73;217712;1257;139809;-68
2023/04/10 02:11:03;;;;;;;38.50;27.00;;;;;;;7.48;87.25;100668.98;218345;1256;140374;-68
2023/04/10 02:16:08;;;;;;;53.10;30.70;;;;;;;7.47;87.16;100669.47;218418;1256;140644;-65
2023/04/10 02:21:13;;;;;;;40.20;28.10;;;;;;;7.46;87.04;100669.71;218513;1257;140633;-66
2023/04/10 02:26:18;;;;;;;42.00;29.90;;;;;;;7.47;87.34;100666.04;217960;1258;139933;-68
2023/04/10 02:31:23;;;;;;;42.80;27.70;;;;;;;7.46;86.99;100667.34;218408;1258;139896;-67
2023/04/10 02:36:29;;;;;;;37.80;27.10;;;;;;;7.42;87.26;100678.20;218764;1257;142445;-65
2023/04/10 02:41:33;;;;;;;99.00;34.90;;;;;;;7.37;87.08;100687.83;217842;1256;140160;-66
2023/04/10 02:46:37;;;;;;;80.20;33.50;;;;;;;7.38;87.29;100689.63;218157;1257;140349;-66
2023/04/10 02:51:43;;;;;;;40.00;28.10;;;;;;;7.37;86.97;100686.64;219945;1256;140719;-66
2023/04/10 02:56:47;;;;;;;38.30;27.50;;;;;;;7.38;87.38;100691.63;218988;1257;141073;-69
2023/04/10 03:01:51;;;;;;;39.10;26.90;;;;;;;7.36;87.03;100688.30;220080;1260;140310;-69
2023/04/10 03:06:58;;;;;;;37.60;26.40;;;;;;;7.34;87.20;100693.11;218007;1256;140459;-68
2023/04/10 03:12:02;;;;;;;30.00;23.70;;;;;;;7.36;87.16;100689.20;220146;1256;140348;-68
2023/04/10 03:17:06;;;;;;;36.80;26.20;;;;;;;7.34;87.04;100682.50;219149;1259;140854;-68
2023/04/10 03:22:11;;;;;;;37.20;24.90;;;;;;;7.30;86.97;100685.41;219309;1256;140569;-68
2023/04/10 03:27:16;;;;;;;36.80;25.50;;;;;;;7.26;87.23;100689.17;218153;1256;140732;-68
2023/04/10 03:32:22;;;;;;;54.40;25.80;;;;;;;7.24;86.99;100689.80;218505;1257;141285;-68
2023/04/10 03:37:27;;;;;;;42.70;24.60;;;;;;;7.19;86.81;100697.00;218118;1257;140309;-68
2023/04/10 03:42:31;;;;;;;50.30;26.90;;;;;;;7.15;87.08;100701.77;218698;1256;140349;-68
2023/04/10 03:47:36;;;;;;;46.70;27.60;;;;;;;7.12;87.11;100701.95;218609;1257;140566;-68
2023/04/10 03:52:41;;;;;;;45.00;27.20;;;;;;;7.09;87.04;100701.92;217620;1257;140712;-68
2023/04/10 03:57:48;;;;;;;42.50;28.80;;;;;;;7.08;87.47;100700.36;217586;1259;140802;-67
2023/04/10 04:02:52;;;;;;;43.10;28.50;;;;;;;7.07;87.26;100703.36;217724;1260;140496;-68
2023/04/10 04:07:57;;;;;;;52.00;28.40;;;;;;;7.08;87.47;100714.06;218006;1257;139783;-68
2023/04/10 04:13:03;;;;;;;43.40;27.50;;;;;;;7.09;87.52;100716.04;218491;1257;140527;-68
2023/04/10 04:18:08;;;;;;;43.50;25.70;;;;;;;7.08;87.30;100713.83;217588;1256;139929;-68
2023/04/10 04:23:12;;;;;;;54.10;28.40;;;;;;;7.07;87.28;100719.84;217554;1256;140483;-70
2023/04/10 04:28:18;;;;;;;49.90;31.80;;;;;;;7.05;87.91;100723.98;217467;1261;140923;-68
2023/04/10 04:33:23;;;;;;;81.30;34.10;;;;;;;7.07;87.87;100732.69;217473;1260;140083;-69
2023/04/10 04:38:28;;;;;;;40.30;27.90;;;;;;;7.12;87.73;100729.98;217606;1260;140830;-69
2023/04/10 04:43:32;;;;;;;49.70;28.30;;;;;;;7.18;88.41;100732.36;217553;1256;139856;-69
2023/04/10 04:48:35;;;;;;;52.50;28.90;;;;;;;7.22;87.98;100732.98;217853;1256;140078;-69
2023/04/10 04:53:39;;;;;;;44.30;27.50;;;;;;;7.24;88.03;100743.45;220205;1256;140107;-68
2023/04/10 04:58:43;;;;;;;46.80;28.10;;;;;;;7.26;87.76;100742.86;220248;1256;141194;-69
2023/04/10 05:03:48;;;;;;;49.10;29.90;;;;;;;7.32;87.83;100751.41;218667;1256;140187;-65
2023/04/10 05:08:54;;;;;;;56.40;28.20;;;;;;;7.41;87.85;100763.73;218930;1256;140096;-64
2023/04/10 05:13:59;;;;;;;43.60;26.30;;;;;;;7.50;87.98;100766.45;220011;1256;139918;-66
2023/04/10 05:19:04;;;;;;;30.00;23.20;;;;;;;7.59;88.13;100762.73;217978;1256;139867;-65
2023/04/10 05:24:09;;;;;;;61.30;25.70;;;;;;;7.64;88.19;100769.79;218688;1257;140742;-67
2023/04/10 05:29:14;;;;;;;43.90;27.40;;;;;;;7.71;88.09;100774.50;217829;1257;141553;-67
2023/04/10 05:34:19;;;;;;;43.70;27.20;;;;;;;7.75;88.10;100778.34;217858;1256;140455;-67
2023/04/10 05:39:23;;;;;;;25.80;17.30;;;;;;;7.79;88.19;100775.23;218277;1261;140318;-67
2023/04/10 05:44:29;;;;;;;38.90;21.20;;;;;;;7.80;88.12;100776.96;218267;1256;141180;-66
2023/04/10 05:49:35;;;;;;;33.60;22.00;;;;;;;7.74;87.54;100780.83;218790;1256;141168;-67
2023/04/10 05:54:41;;;;;;;35.80;22.10;;;;;;;7.68;87.85;100782.92;217790;1259;140819;-67
2023/04/10 05:59:46;;;;;;;37.10;21.30;;;;;;;7.66;87.70;100787.86;218602;1257;210463;-67
2023/04/10 06:04:52;;;;;;;35.60;21.90;;;;;;;7.65;87.73;100784.81;217432;1256;141802;-67
2023/04/10 06:09:59;;;;;;;28.10;20.70;;;;;;;7.70;87.92;100783.27;217838;1256;140513;-68
2023/04/10 06:15:05;;;;;;;40.60;23.60;;;;;;;7.78;88.04;100781.19;217713;1260;140015;-66
2023/04/10 06:20:10;;;;;;;35.30;23.60;;;;;;;7.83;88.16;100781.20;217688;1256;139833;-66
2023/04/10 06:25:15;;;;;;;29.60;21.60;;;;;;;7.87;88.33;100782.58;218742;1256;141033;-67
2023/04/10 06:30:20;;;;;;;47.00;20.10;;;;;;;7.97;88.07;100783.59;217700;1256;139959;-67
2023/04/10 06:35:27;;;;;;;25.40;19.00;;;;;;;8.05;87.94;100782.06;217885;1256;139996;-67
2023/04/10 06:40:33;;;;;;;25.90;20.20;;;;;;;8.08;87.90;100783.98;219290;1256;140970;-66
2023/04/10 06:45:37;;;;;;;34.30;23.50;;;;;;;8.17;87.92;100787.52;219584;1257;141628;-65
2023/04/10 06:50:41;;;;;;;31.50;22.10;;;;;;;8.31;88.05;100784.06;220193;1256;140872;-66
2023/04/10 06:55:47;;;;;;;33.70;18.80;;;;;;;8.42;87.87;100787.70;219203;1256;141509;-66
2023/04/10 07:00:53;;;;;;;27.90;18.10;;;;;;;8.47;87.59;100791.70;220284;1256;140327;-65
2023/04/10 07:06:00;;;;;;;29.20;21.10;;;;;;;8.55;87.54;100790.48;220076;1259;140718;-65
2023/04/10 07:11:07;;;;;;;24.00;17.70;;;;;;;8.67;87.36;100795.41;218861;1259;141074;-66
2023/04/10 07:16:12;;;;;;;29.80;21.60;;;;;;;8.76;87.22;100796.17;218024;1260;140245;-66
2023/04/10 07:21:16;;;;;;;24.70;19.00;;;;;;;8.83;87.14;100796.37;217546;1262;139929;-66
2023/04/10 07:26:20;;;;;;;21.60;16.60;;;;;;;8.98;87.23;100792.63;218186;1256;141291;-66
2023/04/10 07:31:25;;;;;;;22.50;15.40;;;;;;;9.16;87.19;100793.52;217891;1256;140497;-66
2023/04/10 07:36:29;;;;;;;27.00;18.20;;;;;;;9.32;87.19;100793.48;217949;1257;140751;-66
2023/04/10 07:41:34;;;;;;;24.80;18.50;;;;;;;9.53;87.27;100791.34;218235;1256;140617;-66
2023/04/10 07:46:38;;;;;;;24.00;17.30;;;;;;;9.70;86.87;100793.67;217599;1262;140035;-65
2023/04/10 07:51:42;;;;;;;21.80;18.20;;;;;;;9.82;86.72;100793.31;217590;1257;140675;-69
2023/04/10 07:56:46;;;;;;;23.20;16.20;;;;;;;9.95;86.71;100798.07;217605;1256;140888;-67
2023/04/10 08:01:50;;;;;;;29.00;17.10;;;;;;;10.03;86.33;100793.08;217216;1262;142574;-69
2023/04/10 08:06:55;;;;;;;21.70;15.80;;;;;;;10.14;86.39;100789.98;218306;1262;141109;-68
2023/04/10 08:12:00;;;;;;;21.00;15.70;;;;;;;10.23;85.91;100789.44;217813;1261;143203;-71
2023/04/10 08:17:05;;;;;;;24.10;17.60;;;;;;;10.37;86.01;100789.64;218985;1261;141528;-70
2023/04/10 08:22:10;;;;;;;22.30;16.70;;;;;;;10.58;85.91;100785.25;218740;1256;140136;-69
2023/04/10 08:27:15;;;;;;;16.90;14.00;;;;;;;10.90;86.07;100780.58;218386;1260;140814;-69
2023/04/10 08:32:20;;;;;;;24.70;16.70;;;;;;;11.15;85.49;100776.65;218383;1258;140105;-71
2023/04/10 08:37:25;;;;;;;20.90;13.90;;;;;;;11.43;85.56;100782.09;217363;1256;141463;-69
2023/04/10 08:42:30;;;;;;;20.10;13.80;;;;;;;11.71;85.00;100776.52;218988;1257;140839;-70
2023/04/10 08:47:40;;;;;;;15.70;13.30;;;;;;;12.18;85.41;100771.30;220101;1256;139996;-71
2023/04/10 08:52:50;;;;;;;15.10;13.50;;;;;;;12.70;84.55;100767.10;219155;1261;588314;-68
2023/04/10 08:57:54;;;;;;;20.10;13.40;;;;;;;12.94;83.82;100766.03;218499;1257;140504;-68
2023/04/10 09:03:10;;;;;;;14.20;12.70;;;;;;;13.17;83.82;100759.52;218782;1262;140927;-66
2023/04/10 09:08:16;;;;;;;15.80;12.70;;;;;;;13.65;83.65;100755.70;218065;1262;140497;-68
2023/04/10 09:13:41;;;;;;;18.60;15.10;;;;;;;14.01;83.40;100752.76;218211;1260;140416;-67
2023/04/10 09:18:50;;;;;;;15.20;13.20;;;;;;;14.39;82.95;100746.77;218985;1260;141941;-67
2023/04/10 09:24:00;;;;;;;18.30;15.00;;;;;;;14.66;82.38;100741.45;218150;1260;140493;-68
2023/04/10 09:29:06;;;;;;;19.00;13.10;;;;;;;14.88;81.71;100738.64;217499;1262;142345;-69
2023/04/10 09:34:18;;;;;;;19.40;14.40;;;;;;;15.03;80.80;100735.30;217924;1260;140620;-71
2023/04/10 09:39:32;;;;;;;21.40;14.60;;;;;;;15.19;80.28;100733.27;217083;1262;141558;-70
2023/04/10 09:44:39;;;;;;;20.20;15.00;;;;;;;15.44;79.77;100730.39;217524;1261;140279;-68
2023/04/10 09:49:49;;;;;;;15.90;14.30;;;;;;;15.81;79.34;100720.42;217636;1262;140682;-69
2023/04/10 09:54:56;;;;;;;16.90;14.00;;;;;;;16.11;78.77;100713.67;218369;1261;141910;-69
2023/04/10 10:00:05;;;;;;;15.50;14.00;;;;;;;16.45;77.97;100708.16;217517;1257;141522;-67
2023/04/10 10:05:10;;;;;;;15.70;12.40;;;;;;;16.53;76.87;100701.04;218325;1262;140052;-67
2023/04/10 10:10:14;;;;;;;15.10;11.90;;;;;;;16.57;76.11;100698.50;218577;1261;142530;-68
2023/04/10 10:15:37;;;;;;;14.20;11.30;;;;;;;16.34;75.07;100693.05;218975;1257;140498;-70
2023/04/10 10:20:45;;;;;;;13.10;11.60;;;;;;;16.23;74.78;100685.91;218991;1256;141659;-71
2023/04/10 10:25:51;;;;;;;16.60;12.90;;;;;;;16.29;74.31;100690.14;218514;1262;140612;-70
2023/04/10 10:30:56;;;;;;;10.10;9.20;;;;;;;16.34;73.68;100682.88;218099;1260;139663;-76
2023/04/10 10:36:02;;;;;;;12.10;9.80;;;;;;;16.80;73.29;100673.54;219569;1258;141072;-70
2023/04/10 10:41:20;;;;;;;10.30;9.30;;;;;;;17.29;72.75;100662.77;220216;1257;140354;-72
2023/04/10 10:46:36;;;;;;;11.20;8.80;;;;;;;17.73;71.98;100652.46;218811;1260;140423;-71
2023/04/10 10:51:49;;;;;;;9.30;8.40;;;;;;;17.58;69.84;100650.30;218818;1257;140732;-70
2023/04/10 10:56:54;;;;;;;7.80;6.80;;;;;;;17.40;69.58;100651.29;219332;1257;139473;-70
2023/04/10 11:02:19;;;;;;;6.30;5.80;;;;;;;17.37;68.93;100649.38;219646;1257;140298;-70
2023/04/10 11:08:00;;;;;;;6.50;5.90;;;;;;;17.45;68.30;100640.32;217558;1262;139103;-71
2023/04/10 11:13:18;;;;;;;6.70;6.10;;;;;;;17.97;68.14;100635.52;218771;1262;140058;-69
2023/04/10 11:18:44;;;;;;;9.80;8.70;;;;;;;18.40;67.91;100638.63;218817;1257;139913;-67
2023/04/10 11:23:52;;;;;;;9.40;8.50;;;;;;;17.99;66.43;100635.30;218489;1258;140370;-68
2023/04/10 11:29:00;;;;;;;8.10;7.30;;;;;;;17.47;65.86;100627.83;218339;1257;141105;-68
2023/04/10 11:34:06;;;;;;;7.80;7.00;;;;;;;17.12;65.77;100626.27;217742;1261;140494;-70
2023/04/10 11:39:17;;;;;;;7.70;6.80;;;;;;;16.99;66.14;100621.17;218763;1258;139373;-70
2023/04/10 11:44:25;;;;;;;7.20;6.50;;;;;;;17.23;66.30;100614.91;218195;1258;139877;-69
2023/04/10 11:49:31;;;;;;;7.30;6.60;;;;;;;17.56;66.39;100608.86;218855;1257;139695;-70
2023/04/10 11:54:36;;;;;;;7.50;6.20;;;;;;;17.88;65.57;100605.26;218123;1258;139508;-70
2023/04/10 11:59:40;;;;;;;7.70;6.20;;;;;;;17.65;64.74;100594.75;217383;1260;139886;-71
2023/04/10 12:04:44;;;;;;;9.90;5.60;;;;;;;17.37;64.67;100588.02;218804;1257;139234;-72
2023/04/10 12:10:00;;;;;;;6.10;5.50;;;;;;;17.17;64.52;100587.98;217422;1257;139141;-68
2023/04/10 12:15:27;;;;;;;6.80;5.80;;;;;;;16.89;63.94;100591.13;218914;1257;139755;-71
2023/04/10 12:20:32;;;;;;;6.70;6.10;;;;;;;16.67;63.73;100579.89;218621;1258;139340;-69
2023/04/10 12:25:38;;;;;;;8.00;5.90;;;;;;;16.62;63.91;100568.27;218210;1257;139835;-70
2023/04/10 12:30:51;;;;;;;9.40;6.00;;;;;;;16.67;64.20;100563.85;218180;1257;140046;-68
2023/04/10 12:35:56;;;;;;;9.60;6.00;;;;;;;16.95;64.43;100551.48;220098;1257;139692;-69
2023/04/10 12:41:00;;;;;;;6.80;6.00;;;;;;;17.44;64.29;100546.40;220068;1257;139615;-69
2023/04/10 12:46:05;;;;;;;8.00;7.30;;;;;;;17.79;63.84;100542.53;219184;1257;142314;-69
2023/04/10 12:51:09;;;;;;;9.10;7.40;;;;;;;17.76;62.75;100540.29;217355;1260;139323;-68
2023/04/10 12:56:13;;;;;;;8.10;7.30;;;;;;;17.10;62.12;100540.34;219004;1258;139403;-69
2023/04/10 13:01:20;;;;;;;8.20;7.40;;;;;;;16.54;62.13;100530.64;218280;1257;140052;-68
2023/04/10 13:06:24;;;;;;;6.40;5.70;;;;;;;16.20;62.49;100524.36;218382;1257;139548;-68
2023/04/10 13:11:29;;;;;;;11.10;7.20;;;;;;;15.90;62.63;100516.59;217744;1257;140861;-69
2023/04/10 13:16:33;;;;;;;7.20;6.60;;;;;;;15.66;63.19;100516.14;218769;1257;140528;-68
2023/04/10 13:21:38;;;;;;;8.10;6.20;;;;;;;15.49;63.45;100505.40;217311;1258;139769;-68
2023/04/10 13:26:49;;;;;;;6.30;5.70;;;;;;;15.34;63.52;100499.91;218775;1257;140362;-70
2023/04/10 13:31:53;;;;;;;5.70;5.20;;;;;;;15.30;63.96;100488.36;217472;1260;141633;-69
2023/04/10 13:36:59;;;;;;;5.00;4.60;;;;;;;15.33;64.16;100483.19;218192;1257;139461;-68
2023/04/10 13:42:03;;;;;;;8.90;6.70;;;;;;;15.53;64.20;100481.05;217690;1260;139604;-68
2023/04/10 13:47:10;;;;;;;6.40;5.70;;;;;;;15.66;64.39;100468.67;218475;1257;139188;-68
2023/04/10 13:52:14;;;;;;;7.50;6.10;;;;;;;15.91;64.27;100459.77;217973;1257;139382;-69
2023/04/10 13:57:17;;;;;;;6.70;6.20;;;;;;;16.17;64.40;100452.08;218733;1257;139648;-68
2023/04/10 14:02:21;;;;;;;6.00;5.50;;;;;;;16.37;63.23;100450.34;218698;1257;139971;-70
2023/04/10 14:07:25;;;;;;;5.70;5.20;;;;;;;16.48;62.87;100445.48;218728;1257;140433;-69
2023/04/10 14:12:29;;;;;;;6.00;5.30;;;;;;;16.60;62.82;100445.84;219380;1258;140848;-70
2023/04/10 14:17:33;;;;;;;10.50;6.30;;;;;;;16.75;62.61;100440.41;218336;1257;139517;-68
2023/04/10 14:22:37;;;;;;;8.70;5.80;;;;;;;16.80;61.99;100440.59;217970;1257;139616;-69
2023/04/10 14:27:41;;;;;;;5.80;5.30;;;;;;;16.78;62.03;100437.52;220068;1257;140138;-69
2023/04/10 14:32:45;;;;;;;9.20;5.90;;;;;;;16.81;61.91;100432.15;218692;1257;138706;-69
2023/04/10 14:37:49;;;;;;;5.50;5.00;;;;;;;16.81;61.71;100427.84;217822;1257;139388;-67
2023/04/10 14:42:53;;;;;;;4.70;4.30;;;;;;;16.86;61.39;100428.19;217242;1260;140570;-67
2023/04/10 14:47:57;;;;;;;5.70;4.90;;;;;;;16.92;61.19;100424.79;218370;1257;139913;-66
2023/04/10 14:53:02;;;;;;;8.00;5.10;;;;;;;17.04;61.19;100420.94;217777;1257;139610;-68
2023/04/10 14:58:10;;;;;;;4.90;4.50;;;;;;;17.09;60.67;100409.66;217882;1258;140075;-66
2023/04/10 15:03:15;;;;;;;5.70;5.20;;;;;;;17.10;60.54;100404.17;218893;1256;140907;-68
2023/04/10 15:08:19;;;;;;;6.20;4.50;;;;;;;17.15;60.18;100395.17;217941;1257;139151;-66
2023/04/10 15:13:23;;;;;;;6.60;4.80;;;;;;;17.13;59.69;100394.73;217659;1260;138842;-68
2023/04/10 15:18:28;;;;;;;5.40;5.00;;;;;;;17.02;59.27;100387.31;217646;1258;139136;-71
2023/04/10 15:23:32;;;;;;;4.90;4.20;;;;;;;16.93;59.03;100383.96;217396;1257;139402;-67
2023/04/10 15:28:37;;;;;;;4.60;4.20;;;;;;;16.78;58.77;100372.09;218402;1256;140353;-69
2023/04/10 15:33:40;;;;;;;4.90;4.00;;;;;;;16.68;59.16;100369.05;217180;1260;139881;-68
2023/04/10 15:38:45;;;;;;;5.20;3.90;;;;;;;16.55;58.92;100361.66;217635;1260;140334;-67
2023/04/10 15:43:52;;;;;;;5.00;3.40;;;;;;;16.50;58.90;100355.06;217910;1258;139738;-67
2023/04/10 15:48:57;;;;;;;9.90;4.50;;;;;;;16.31;58.78;100354.40;217246;1257;139820;-67
2023/04/10 15:54:03;;;;;;;4.10;3.80;;;;;;;16.25;58.91;100349.11;218149;1256;141282;-68
2023/04/10 15:59:09;;;;;;;4.40;4.00;;;;;;;16.23;58.93;100354.16;217773;1258;139512;-66
2023/04/10 16:04:13;;;;;;;4.70;4.30;;;;;;;16.18;59.29;100346.13;218650;1257;139670;-69
2023/04/10 16:09:17;;;;;;;7.00;4.40;;;;;;;16.07;59.09;100340.96;217328;1257;140572;-68
2023/04/10 16:14:24;;;;;;;4.40;4.00;;;;;;;15.94;59.17;100339.50;219554;1257;140026;-68
2023/04/10 16:19:31;;;;;;;6.10;4.10;;;;;;;15.82;59.03;100332.04;218998;1256;139737;-68
2023/04/10 16:24:35;;;;;;;4.30;3.50;;;;;;;15.68;59.08;100328.29;220035;1257;139520;-68
2023/04/10 16:29:39;;;;;;;4.50;4.20;;;;;;;15.55;59.34;100321.76;219360;1256;140302;-66
2023/04/10 16:34:45;;;;;;;6.20;4.60;;;;;;;15.43;59.49;100319.71;218340;1257;140025;-67
2023/04/10 16:39:50;;;;;;;7.90;4.30;;;;;;;15.27;59.83;100314.07;219865;1257;139446;-67
2023/04/10 16:44:54;;;;;;;7.50;4.10;;;;;;;15.10;60.30;100314.66;218627;1257;139859;-67
2023/04/10 16:49:58;;;;;;;4.60;3.70;;;;;;;14.93;60.67;100311.08;217552;1257;139287;-67
2023/04/10 16:55:04;;;;;;;4.50;4.10;;;;;;;14.77;60.94;100310.59;218717;1256;141129;-68
2023/04/10 17:00:10;;;;;;;6.20;5.00;;;;;;;14.61;61.36;100308.98;217442;1260;139327;-66
2023/04/10 17:05:14;;;;;;;5.90;4.30;;;;;;;14.45;61.62;100308.15;217841;1257;140140;-66
2023/04/10 17:10:19;;;;;;;7.70;6.10;;;;;;;14.28;62.14;100308.52;218549;1257;139043;-67
2023/04/10 17:15:23;;;;;;;5.70;5.20;;;;;;;14.10;62.57;100307.44;218069;1258;140279;-67
2023/04/10 17:20:29;;;;;;;6.70;5.20;;;;;;;13.89;62.86;100309.71;217697;1256;139726;-66
2023/04/10 17:25:38;;;;;;;9.00;6.20;;;;;;;13.69;63.34;100313.51;218926;1257;139194;-66
2023/04/10 17:30:43;;;;;;;6.40;5.50;;;;;;;13.51;63.69;100319.91;218547;1256;139237;-67
2023/04/10 17:35:51;;;;;;;6.40;5.50;;;;;;;13.31;63.73;100317.66;218273;1256;140245;-65
2023/04/10 17:40:55;;;;;;;;;;;;;;;13.11;64.07;100321.05;218139;1257;140064;-68
2023/04/10 17:46:00;;;;;;;6.60;5.20;;;;;;;12.86;64.29;100324.16;218450;1256;127303;-67
2023/04/10 17:51:07;;;;;;;8.00;5.00;;;;;;;12.64;64.88;100323.89;217819;1256;141413;-65
2023/04/10 17:56:18;;;;;;;8.40;5.40;;;;;;;12.44;65.50;100322.16;218821;1256;140430;-66
2023/04/10 18:01:28;;;;;;;5.60;5.00;;;;;;;12.23;66.09;100318.61;219595;1256;141987;-66
2023/04/10 18:06:34;;;;;;;6.30;5.70;;;;;;;11.96;66.48;100315.59;219539;1256;140832;-66
2023/04/10 18:11:39;;;;;;;6.20;5.60;;;;;;;11.76;66.72;100309.48;220276;1256;139941;-65
2023/04/10 18:16:46;;;;;;;7.90;5.80;;;;;;;11.62;66.94;100311.66;220286;1256;139992;-68
2023/04/10 18:21:53;;;;;;;6.30;5.70;;;;;;;11.48;67.34;100309.77;220454;1257;141075;-68
2023/04/10 18:26:57;;;;;;;9.80;6.60;;;;;;;11.35;67.20;100307.63;219913;1256;140326;-68
2023/04/10 18:32:01;;;;;;;7.10;6.00;;;;;;;11.19;67.60;100301.37;219634;1256;140508;-67
2023/04/10 18:37:05;;;;;;;9.50;5.70;;;;;;;11.00;67.99;100302.98;219122;1255;141144;-68
2023/04/10 18:42:12;;;;;;;;;;;;;;;10.76;68.54;100303.48;219120;1259;140033;-68
2023/04/10 18:47:16;;;;;;;4.80;4.40;;;;;;;10.60;69.07;100300.27;219316;1256;126577;-67
2023/04/10 18:52:20;;;;;;;5.60;5.00;;;;;;;10.48;69.32;100301.76;218660;1256;139937;-67
2023/04/10 18:57:24;;;;;;;6.00;5.40;;;;;;;10.36;69.40;100304.49;219817;1257;140732;-67
2023/04/10 19:02:30;;;;;;;6.70;6.10;;;;;;;10.24;69.72;100306.28;218273;1257;140433;-66
2023/04/10 19:07:40;;;;;;;8.40;5.90;;;;;;;10.11;69.97;100303.63;218182;1256;140898;-66
2023/04/10 19:12:57;;;;;;;8.40;7.60;;;;;;;9.95;70.06;100297.86;217808;1257;141461;-70
2023/04/10 19:18:02;;;;;;;8.50;6.80;;;;;;;9.78;70.30;100296.79;217835;1256;139704;-67
2023/04/10 19:23:06;;;;;;;8.70;7.80;;;;;;;9.65;70.52;100289.88;218037;1257;140675;-66
2023/04/10 19:28:10;;;;;;;8.70;7.50;;;;;;;9.53;70.68;100285.65;218558;1257;139779;-69
2023/04/10 19:33:15;;;;;;;17.10;8.90;;;;;;;9.40;70.90;100284.96;218260;1256;139637;-67
2023/04/10 19:38:20;;;;;;;21.10;8.70;;;;;;;9.29;71.25;100281.20;218406;1259;140500;-68
2023/04/10 19:43:24;;;;;;;13.60;8.60;;;;;;;9.18;71.44;100281.14;218060;1256;140764;-68
2023/04/10 19:48:29;;;;;;;9.50;8.00;;;;;;;9.04;71.54;100279.81;218125;1256;140672;-67
2023/04/10 19:53:33;;;;;;;15.60;11.00;;;;;;;8.89;72.02;100276.56;219194;1256;139501;-67
2023/04/10 19:58:39;;;;;;;19.30;10.40;;;;;;;8.83;72.43;100272.84;218791;1254;140300;-69
2023/04/10 20:03:45;;;;;;;13.40;9.70;;;;;;;8.67;72.29;100267.55;219029;1257;141905;-66
2023/04/10 20:08:49;;;;;;;19.50;10.50;;;;;;;8.44;72.54;100266.64;220639;1256;140634;-70
2023/04/10 20:13:53;;;;;;;14.40;11.10;;;;;;;8.19;73.15;100272.74;220465;1256;141402;-70
2023/04/10 20:18:56;;;;;;;18.20;11.60;;;;;;;8.16;74.15;100263.02;220119;1256;141015;-70
2023/04/10 20:24:01;;;;;;;22.60;13.40;;;;;;;8.23;74.58;100263.23;220039;1256;141395;-69
2023/04/10 20:29:06;;;;;;;17.20;13.60;;;;;;;8.29;74.74;100252.85;219043;1256;140175;-67
2023/04/10 20:34:11;;;;;;;22.30;14.90;;;;;;;8.31;75.07;100248.69;219628;1255;139919;-69
2023/04/10 20:39:15;;;;;;;28.10;14.70;;;;;;;8.36;75.56;100249.20;218495;1256;140015;-68
2023/04/10 20:44:19;;;;;;;23.40;14.10;;;;;;;8.29;75.25;100241.27;218625;1256;140590;-69
2023/04/10 20:49:24;;;;;;;32.20;17.60;;;;;;;8.14;75.13;100239.36;218933;1256;479073;-68
2023/04/10 20:54:27;;;;;;;27.90;15.80;;;;;;;8.02;75.50;100233.78;218304;1257;142376;-65
2023/04/10 20:59:32;;;;;;;28.50;18.10;;;;;;;7.89;75.92;100224.86;218843;1257;141365;-66
2023/04/10 21:04:36;;;;;;;27.50;16.30;;;;;;;7.85;75.97;100220.98;218029;1256;140385;-67
2023/04/10 21:09:41;;;;;;;43.30;21.70;;;;;;;7.75;75.65;100211.54;218550;1256;140463;-68
2023/04/10 21:14:45;;;;;;;61.20;28.70;;;;;;;7.62;75.89;100203.17;219141;1257;140669;-66
2023/04/10 21:19:49;;;;;;;70.00;28.80;;;;;;;7.57;76.05;100205.46;217660;1259;140875;-68
2023/04/10 21:24:53;;;;;;;69.70;27.80;;;;;;;7.51;76.17;100207.13;219459;1256;140948;-65
2023/04/10 21:29:58;;;;;;;44.60;22.40;;;;;;;7.43;75.93;100202.58;219113;1256;140669;-73
2023/04/10 21:35:03;;;;;;;41.30;22.00;;;;;;;7.36;76.07;100190.54;218906;1257;140696;-68
2023/04/10 21:40:08;;;;;;;27.90;17.60;;;;;;;7.28;75.96;100178.73;219570;1257;140387;-67
2023/04/10 21:45:14;;;;;;;37.40;17.90;;;;;;;7.18;76.03;100173.72;217839;1257;140612;-69
2023/04/10 21:50:21;;;;;;;25.40;15.70;;;;;;;6.95;75.91;100172.61;218458;1257;140065;-66
2023/04/10 21:55:28;;;;;;;17.60;11.60;;;;;;;6.80;76.37;100168.13;219919;1256;139950;-68
2023/04/10 22:00:33;;;;;;;21.20;14.80;;;;;;;6.60;76.17;100158.49;220580;1256;140247;-65
2023/04/10 22:05:42;;;;;;;24.30;17.40;;;;;;;6.50;76.63;100155.99;220359;1256;140237;-65
2023/04/10 22:10:46;;;;;;;37.50;19.10;;;;;;;6.39;76.63;100153.11;220352;1256;142059;-66
2023/04/10 22:15:50;;;;;;;26.90;17.10;;;;;;;6.31;77.47;100145.91;219693;1257;140466;-68
2023/04/10 22:20:54;;;;;;;32.40;20.20;;;;;;;6.25;77.32;100138.71;219009;1255;140061;-68
2023/04/10 22:26:00;;;;;;;33.40;20.40;;;;;;;6.18;77.97;100136.55;219201;1255;140736;-68
2023/04/10 22:31:04;;;;;;;22.40;17.60;;;;;;;6.19;77.93;100128.38;218782;1257;140413;-66
2023/04/10 22:36:09;;;;;;;35.30;20.70;;;;;;;6.08;77.59;100122.95;218698;1257;139745;-69
2023/04/10 22:41:17;;;;;;;41.90;27.50;;;;;;;6.01;78.06;100116.90;218893;1257;140088;-68
2023/04/10 22:46:20;;;;;;;39.60;22.40;;;;;;;6.00;78.31;100110.66;218438;1257;139684;-67
2023/04/10 22:51:25;;;;;;;49.20;27.30;;;;;;;6.00;78.42;100101.66;219117;1256;140516;-69
2023/04/10 22:56:30;;;;;;;36.60;24.20;;;;;;;6.00;78.94;100092.14;218773;1259;141053;-67
2023/04/10 23:01:35;;;;;;;40.70;25.00;;;;;;;5.94;77.92;100083.38;218010;1257;140388;-65